Time;durP1;ratioP1;P1;durP2;ratioP2;P2;SDS_P1;SDS_P2;PMS_P1;PMS_P2;Temp;Humidity;BMP_temperature;BMP_pressure;BME280_temperature;BME280_humidity;BME280_pressure;Samples;Min_cycle;Max_cycle;Signal;HPM_P1;HPM_P2
2023/07/25 00:02:13;;;;;;;4.07;2.25;;;;;;;15.15;100.00;100394.31;4960479;28;20536;-69
2023/07/25 00:04:38;;;;;;;6.05;1.92;;;;;;;15.18;100.00;100398.31;4961724;28;20061;-69
2023/07/25 00:07:04;;;;;;;4.20;1.95;;;;;;;15.21;100.00;100399.75;4958154;28;20612;-68
2023/07/25 00:09:30;;;;;;;3.80;2.00;;;;;;;15.22;100.00;100401.34;4956301;28;20053;-69
2023/07/25 00:11:55;;;;;;;6.75;1.98;;;;;;;15.23;100.00;100401.16;4956501;28;20074;-69
2023/07/25 00:14:21;;;;;;;7.05;1.90;;;;;;;15.24;100.00;100402.78;4960967;28;20032;-68
2023/07/25 00:16:46;;;;;;;6.38;2.03;;;;;;;15.22;100.00;100396.97;4978609;28;20126;-69
2023/07/25 00:19:12;;;;;;;3.00;1.77;;;;;;;15.16;100.00;100395.94;4964193;28;20058;-68
2023/07/25 00:21:37;;;;;;;2.22;1.55;;;;;;;15.15;100.00;100396.13;4979767;28;20046;-69
2023/07/25 00:24:04;;;;;;;7.03;2.38;;;;;;;15.15;100.00;100396.94;4963745;28;20046;-69
2023/07/25 00:26:29;;;;;;;6.35;2.30;;;;;;;15.10;100.00;100399.31;4965334;28;20041;-69
2023/07/25 00:28:54;;;;;;;7.05;1.95;;;;;;;15.10;100.00;100401.13;4966417;28;20417;-69
2023/07/25 00:31:20;;;;;;;3.50;2.20;;;;;;;15.10;100.00;100398.50;4954548;28;20528;-69
2023/07/25 00:33:46;;;;;;;5.22;2.13;;;;;;;15.09;100.00;100396.91;4958522;28;20038;-69
2023/07/25 00:36:11;;;;;;;4.13;2.03;;;;;;;15.11;100.00;100402.75;4960592;28;20120;-68
2023/07/25 00:38:36;;;;;;;4.78;2.30;;;;;;;15.10;100.00;100407.13;4976972;28;20030;-69
2023/07/25 00:41:02;;;;;;;5.38;2.20;;;;;;;15.10;100.00;100395.91;4961464;28;20158;-69
2023/07/25 00:43:27;;;;;;;4.13;2.10;;;;;;;15.11;100.00;100400.13;4945588;28;20039;-69
2023/07/25 00:45:53;;;;;;;7.15;2.22;;;;;;;15.14;100.00;100407.56;4947818;28;20608;-69
2023/07/25 00:48:19;;;;;;;8.32;2.45;;;;;;;15.14;100.00;100400.56;4945579;28;20055;-68
2023/07/25 00:50:45;;;;;;;6.70;1.90;;;;;;;15.15;100.00;100411.78;4942358;28;20121;-69
2023/07/25 00:53:12;;;;;;;8.63;2.35;;;;;;;15.14;100.00;100400.56;4965302;28;20031;-69
2023/07/25 00:55:38;;;;;;;4.28;2.08;;;;;;;15.15;100.00;100401.34;4965107;28;20035;-70
2023/07/25 00:58:04;;;;;;;5.63;2.53;;;;;;;15.17;100.00;100392.31;4956904;28;20701;-69
2023/07/25 01:00:29;;;;;;;7.53;2.10;;;;;;;15.19;100.00;100397.34;4966108;28;20085;-68
2023/07/25 01:02:55;;;;;;;6.47;2.42;;;;;;;15.17;100.00;100394.91;4962839;28;20043;-68
2023/07/25 01:05:21;;;;;;;3.47;2.13;;;;;;;15.14;100.00;100402.34;4963978;28;20046;-69
2023/07/25 01:07:47;;;;;;;5.30;2.10;;;;;;;15.14;100.00;100403.16;4961018;28;20066;-69
2023/07/25 01:10:14;;;;;;;4.28;2.08;;;;;;;15.11;100.00;100387.88;4968435;28;20106;-69
2023/07/25 01:12:40;;;;;;;6.53;2.03;;;;;;;15.09;100.00;100387.28;4965631;28;20144;-69
2023/07/25 01:15:06;;;;;;;4.15;2.55;;;;;;;15.07;100.00;100384.06;4979619;28;20050;-69
2023/07/25 01:17:32;;;;;;;5.55;2.30;;;;;;;15.07;100.00;100388.44;4966124;28;20043;-69
2023/07/25 01:19:59;;;;;;;4.50;1.90;;;;;;;15.06;100.00;100384.25;4961914;28;20039;-68
2023/07/25 01:22:26;;;;;;;4.60;2.40;;;;;;;15.02;100.00;100381.22;4961219;28;20043;-68
2023/07/25 01:24:54;;;;;;;5.28;2.50;;;;;;;14.99;100.00;100384.19;4962887;28;20408;-69
2023/07/25 01:27:20;;;;;;;4.28;2.58;;;;;;;14.97;100.00;100376.59;4965390;28;20042;-69
2023/07/25 01:29:46;;;;;;;5.47;2.95;;;;;;;14.95;100.00;100373.34;4981138;28;20035;-69
2023/07/25 01:32:11;;;;;;;5.03;2.50;;;;;;;14.94;100.00;100374.34;4977087;28;20059;-68
2023/07/25 01:34:37;;;;;;;9.40;3.20;;;;;;;14.94;100.00;100369.13;4961701;28;20043;-68
2023/07/25 01:37:06;;;;;;;5.03;2.10;;;;;;;14.94;100.00;100356.09;4945426;28;20055;-68
2023/07/25 01:39:32;;;;;;;4.72;2.58;;;;;;;14.93;100.00;100366.72;4962537;28;20462;-68
2023/07/25 01:41:57;;;;;;;4.60;2.03;;;;;;;14.91;100.00;100366.91;4952790;28;20261;-68
2023/07/25 01:44:23;;;;;;;4.57;2.40;;;;;;;14.88;100.00;100363.88;4947206;28;20033;-68
2023/07/25 01:46:48;;;;;;;5.65;2.53;;;;;;;14.87;100.00;100354.44;4966117;28;20092;-68
2023/07/25 01:49:14;;;;;;;7.05;2.55;;;;;;;14.86;100.00;100351.03;4962581;28;20062;-69
2023/07/25 01:51:39;;;;;;;4.18;1.88;;;;;;;14.82;100.00;100341.16;4967337;28;20078;-69
2023/07/25 01:54:06;;;;;;;6.63;2.17;;;;;;;14.79;100.00;100343.16;4961976;28;20042;-68
2023/07/25 01:56:31;;;;;;;3.85;2.50;;;;;;;14.77;100.00;100333.94;4965088;28;20027;-69
2023/07/25 01:58:57;;;;;;;4.30;2.65;;;;;;;14.76;100.00;100335.72;4965343;28;20039;-68
2023/07/25 02:01:23;;;;;;;4.75;2.30;;;;;;;14.75;100.00;100336.75;4962235;28;20138;-69
2023/07/25 02:03:49;;;;;;;8.27;2.63;;;;;;;14.74;100.00;100340.34;4962879;28;20038;-69
2023/07/25 02:06:14;;;;;;;10.27;2.25;;;;;;;14.71;100.00;100332.09;4962982;28;20046;-69
2023/07/25 02:08:40;;;;;;;5.00;2.38;;;;;;;14.64;100.00;100331.28;4964151;28;20042;-69
2023/07/25 02:11:05;;;;;;;8.85;2.78;;;;;;;14.57;100.00;100341.66;4979953;28;20496;-69
2023/07/25 02:13:31;;;;;;;7.05;2.83;;;;;;;14.50;100.00;100338.19;4965053;28;20711;-69
2023/07/25 02:15:56;;;;;;;7.45;2.33;;;;;;;14.47;100.00;100335.97;4964688;28;21858;-69
2023/07/25 02:18:22;;;;;;;9.68;2.38;;;;;;;14.44;100.00;100339.75;4975886;28;20038;-69
2023/07/25 02:20:47;;;;;;;6.90;2.63;;;;;;;14.40;100.00;100338.53;4964143;28;20497;-69
2023/07/25 02:23:13;;;;;;;5.95;2.92;;;;;;;14.38;100.00;100338.72;4981511;28;20031;-69
2023/07/25 02:25:38;;;;;;;4.93;2.65;;;;;;;14.35;100.00;100336.50;4966315;28;20039;-70
2023/07/25 02:28:04;;;;;;;8.25;2.83;;;;;;;14.34;100.00;100331.47;4967382;28;20037;-69
2023/07/25 02:30:30;;;;;;;6.32;2.22;;;;;;;14.35;100.00;100330.47;4967659;28;20039;-69
2023/07/25 02:32:55;;;;;;;7.00;2.80;;;;;;;14.33;100.00;100317.63;4959781;28;20112;-69
2023/07/25 02:35:21;;;;;;;5.93;2.70;;;;;;;14.27;100.00;100322.81;4964039;28;20030;-69
2023/07/25 02:37:47;;;;;;;4.55;2.70;;;;;;;14.24;100.00;100333.63;4965794;28;20556;-69
2023/07/25 02:40:12;;;;;;;8.48;2.83;;;;;;;14.22;100.00;100333.81;4968972;28;20038;-69
2023/07/25 02:42:38;;;;;;;6.22;2.40;;;;;;;14.23;100.00;100334.63;4961807;28;20043;-69
2023/07/25 02:45:05;;;;;;;7.05;2.75;;;;;;;14.21;100.00;100340.03;4958277;28;20113;-69
2023/07/25 02:47:30;;;;;;;8.43;3.20;;;;;;;14.21;100.00;100340.81;4962220;28;20149;-69
2023/07/25 02:49:56;;;;;;;4.95;2.95;;;;;;;14.18;100.00;100337.78;4962324;28;20385;-69
2023/07/25 02:52:21;;;;;;;6.68;2.72;;;;;;;14.12;100.00;100338.56;4968917;28;20139;-69
2023/07/25 02:54:47;;;;;;;4.80;2.58;;;;;;;14.11;100.00;100345.59;4961465;28;20036;-69
2023/07/25 02:57:12;;;;;;;4.95;2.90;;;;;;;14.12;100.00;100341.16;4962803;28;20039;-69
2023/07/25 02:59:38;;;;;;;4.15;2.78;;;;;;;14.13;100.00;100337.56;4962216;28;20046;-69
2023/07/25 03:02:04;;;;;;;7.22;3.13;;;;;;;14.15;100.00;100338.19;4980983;28;20038;-68
2023/07/25 03:04:29;;;;;;;5.32;3.15;;;;;;;14.16;100.00;100337.19;4950247;28;20101;-69
2023/07/25 03:06:55;;;;;;;5.40;2.90;;;;;;;14.16;100.00;100337.19;4976347;28;20061;-69
2023/07/25 03:09:20;;;;;;;7.47;3.20;;;;;;;14.15;100.00;100335.59;4962440;28;20035;-69
2023/07/25 03:11:46;;;;;;;7.10;3.10;;;;;;;14.15;100.00;100339.00;4966193;28;20043;-69
2023/07/25 03:14:12;;;;;;;8.45;3.00;;;;;;;14.15;100.00;100332.97;4963932;28;20034;-69
2023/07/25 03:16:37;;;;;;;7.55;3.13;;;;;;;14.13;100.00;100327.94;4966048;28;20514;-69
2023/07/25 03:19:03;;;;;;;6.20;2.92;;;;;;;14.12;100.00;100336.75;4966291;28;20034;-69
2023/07/25 03:21:28;;;;;;;9.95;3.10;;;;;;;14.08;100.00;100332.91;4948600;28;20050;-69
2023/07/25 03:23:54;;;;;;;8.52;3.42;;;;;;;14.07;100.00;100331.31;4966860;28;20034;-69
2023/07/25 03:26:19;;;;;;;9.23;4.10;;;;;;;14.07;100.00;100330.50;4962772;28;20393;-69
2023/07/25 03:28:45;;;;;;;10.18;3.10;;;;;;;14.04;100.00;100329.09;4969587;28;20492;-69
2023/07/25 03:31:10;;;;;;;6.38;3.30;;;;;;;14.00;100.00;100327.84;4965774;28;20046;-69
2023/07/25 03:33:36;;;;;;;6.97;3.28;;;;;;;13.96;100.00;100332.63;4964755;28;20042;-69
2023/07/25 03:36:01;;;;;;;5.70;3.28;;;;;;;13.91;100.00;100335.00;4963401;28;20047;-69
2023/07/25 03:38:27;;;;;;;5.20;3.47;;;;;;;13.91;100.00;100334.19;4966641;28;20070;-69
2023/07/25 03:40:52;;;;;;;12.93;3.60;;;;;;;13.90;100.00;100340.41;4950174;28;20031;-69
2023/07/25 03:43:20;;;;;;;9.98;3.53;;;;;;;13.88;100.00;100345.81;4969394;28;20046;-69
2023/07/25 03:45:45;;;;;;;6.85;4.15;;;;;;;13.86;100.00;100344.38;4960061;28;20058;-70
2023/07/25 03:48:11;;;;;;;7.05;3.88;;;;;;;13.86;100.00;100328.75;4962313;28;20022;-69
2023/07/25 03:50:36;;;;;;;5.47;3.30;;;;;;;13.89;100.00;100338.81;4966471;28;20046;-69
2023/07/25 03:53:04;;;;;;;4.78;3.67;;;;;;;13.90;100.00;100340.41;4963366;28;20041;-69
2023/07/25 03:55:29;;;;;;;9.32;3.92;;;;;;;13.91;100.00;100339.41;4965788;28;20054;-69
2023/07/25 03:57:55;;;;;;;5.90;3.63;;;;;;;13.88;100.00;100329.34;4967626;28;20039;-68
2023/07/25 04:00:20;;;;;;;7.68;4.20;;;;;;;13.89;100.00;100330.97;4985049;28;20540;-69
2023/07/25 04:02:46;;;;;;;6.75;3.90;;;;;;;13.87;100.00;100328.56;4967676;28;20070;-69
2023/07/25 04:05:12;;;;;;;11.68;4.35;;;;;;;13.83;100.00;100325.53;4952575;28;20031;-69
2023/07/25 04:07:37;;;;;;;8.35;4.82;;;;;;;13.81;100.00;100326.72;4979992;28;20593;-69
2023/07/25 04:10:03;;;;;;;9.32;4.55;;;;;;;13.81;100.00;100326.72;4962384;28;20049;-69
2023/07/25 04:12:29;;;;;;;6.63;3.75;;;;;;;13.83;100.00;100327.31;4981870;28;20073;-69
2023/07/25 04:14:54;;;;;;;6.15;4.18;;;;;;;13.86;100.00;100321.72;4968804;28;20035;-69
2023/07/25 04:17:20;;;;;;;6.43;4.30;;;;;;;13.89;100.00;100317.94;4971999;28;20031;-69
2023/07/25 04:19:45;;;;;;;6.78;3.35;;;;;;;13.92;100.00;100309.72;4967999;28;20389;-69
2023/07/25 04:22:11;;;;;;;6.43;3.47;;;;;;;13.93;100.00;100311.34;4975178;23;20043;-67
2023/07/25 04:24:37;;;;;;;5.68;3.40;;;;;;;13.92;100.00;100314.94;4981116;28;20099;-68
2023/07/25 04:27:02;;;;;;;6.47;3.53;;;;;;;13.93;100.00;100314.75;4983555;28;20093;-68
2023/07/25 04:29:28;;;;;;;6.85;3.10;;;;;;;13.94;100.00;100312.97;4985426;28;20039;-67
2023/07/25 04:31:53;;;;;;;5.28;3.40;;;;;;;13.95;100.00;100304.16;4989889;28;20046;-68
2023/07/25 04:34:19;;;;;;;8.40;3.63;;;;;;;13.97;100.00;100307.38;5005429;28;20045;-68
2023/07/25 04:36:44;;;;;;;7.47;4.53;;;;;;;14.00;100.00;100312.22;5004341;28;20026;-67
2023/07/25 04:39:10;;;;;;;10.10;3.55;;;;;;;14.02;100.00;100312.84;5005703;28;20056;-68
2023/07/25 04:41:35;;;;;;;7.50;3.83;;;;;;;14.01;100.00;100316.41;5002736;28;20054;-67
2023/07/25 04:44:01;;;;;;;8.88;4.00;;;;;;;13.98;100.00;100317.63;5002352;28;20030;-68
2023/07/25 04:46:28;;;;;;;8.95;4.50;;;;;;;13.99;100.00;100314.03;5004502;28;20029;-68
2023/07/25 04:48:54;;;;;;;6.45;3.70;;;;;;;13.97;100.00;100320.41;5007773;28;20116;-68
2023/07/25 04:51:19;;;;;;;12.90;4.30;;;;;;;13.99;100.00;100318.41;5003335;28;20030;-68
2023/07/25 04:53:45;;;;;;;12.80;5.13;;;;;;;14.06;100.00;100328.91;4986287;28;20034;-68
2023/07/25 04:56:10;;;;;;;8.90;4.75;;;;;;;14.07;100.00;100323.50;5004145;28;20040;-68
2023/07/25 04:58:38;;;;;;;6.32;4.13;;;;;;;14.11;100.00;100326.50;5003316;28;20041;-68
2023/07/25 05:01:04;;;;;;;10.95;4.60;;;;;;;14.15;100.00;100319.94;4984935;28;20046;-68
2023/07/25 05:03:29;;;;;;;13.63;4.10;;;;;;;14.16;100.00;100326.75;5004651;28;21051;-68
2023/07/25 05:05:56;;;;;;;8.10;4.40;;;;;;;14.20;100.00;100326.19;5001201;28;20084;-68
2023/07/25 05:08:21;;;;;;;13.32;5.00;;;;;;;14.23;100.00;100325.00;5006031;28;20391;-68
2023/07/25 05:10:50;;;;;;;8.98;5.38;;;;;;;14.18;100.00;100329.97;5020013;28;20029;-68
2023/07/25 05:13:16;;;;;;;15.05;4.80;;;;;;;14.28;100.00;100321.78;5007851;28;20036;-68
2023/07/25 05:15:41;;;;;;;9.77;4.50;;;;;;;14.32;100.00;100315.22;5002612;28;20026;-68
2023/07/25 05:18:07;;;;;;;12.13;4.70;;;;;;;14.37;100.00;100318.03;5005507;28;20034;-68
2023/07/25 05:20:32;;;;;;;11.32;5.18;;;;;;;14.37;100.00;100311.03;4987617;28;20117;-68
2023/07/25 05:22:58;;;;;;;9.13;3.92;;;;;;;14.45;100.00;100307.47;5002673;28;20045;-68
2023/07/25 05:25:23;;;;;;;13.40;4.72;;;;;;;14.52;100.00;100307.47;4987296;28;20041;-68
2023/07/25 05:27:48;;;;;;;12.30;5.18;;;;;;;14.60;100.00;100307.38;5005010;28;20084;-68
2023/07/25 05:30:14;;;;;;;10.27;4.60;;;;;;;14.63;100.00;100308.78;5003815;28;20045;-68
2023/07/25 05:32:40;;;;;;;9.27;4.45;;;;;;;14.65;100.00;100317.22;5001346;28;20415;-68
2023/07/25 05:35:05;;;;;;;11.18;4.63;;;;;;;14.60;100.00;100313.38;5004178;28;20523;-68
2023/07/25 05:37:38;;;;;;;9.45;3.85;;;;;;;14.53;100.00;100315.13;5006531;28;20137;-68
2023/07/25 05:40:04;;;;;;;;;;;;;;;14.48;100.00;100317.50;5020334;28;20076;-68
2023/07/25 05:42:30;;;;;;;6.43;3.10;;;;;;;14.51;100.00;100313.72;5001179;28;20000;-68
2023/07/25 05:44:56;;;;;;;6.25;3.80;;;;;;;14.54;100.00;100323.75;5004337;28;20104;-68
2023/07/25 05:47:22;;;;;;;12.35;3.88;;;;;;;14.56;100.00;100321.75;5003926;28;20536;-67
2023/07/25 05:49:47;;;;;;;13.15;3.90;;;;;;;14.60;100.00;100328.25;5002509;28;20045;-68
2023/07/25 05:52:13;;;;;;;8.55;3.88;;;;;;;14.62;100.00;100322.81;5001185;28;20065;-67
2023/07/25 05:54:39;;;;;;;11.07;4.30;;;;;;;14.56;100.00;100326.97;5005429;28;20042;-67
2023/07/25 05:57:05;;;;;;;6.35;3.20;;;;;;;14.64;100.00;100326.84;5002058;28;20385;-67
2023/07/25 05:59:30;;;;;;;10.30;4.05;;;;;;;14.67;100.00;100342.09;5002195;28;20073;-67
2023/07/25 06:01:56;;;;;;;9.75;3.90;;;;;;;14.71;100.00;100334.69;5003657;28;20053;-68
2023/07/25 06:04:22;;;;;;;12.10;3.90;;;;;;;14.76;100.00;100337.53;5002348;28;21029;-68
2023/07/25 06:06:47;;;;;;;8.32;3.25;;;;;;;14.78;100.00;100338.16;5002561;28;20108;-67
2023/07/25 06:09:13;;;;;;;8.65;3.45;;;;;;;14.78;100.00;100336.34;5003344;28;20084;-68
2023/07/25 06:11:38;;;;;;;8.23;3.20;;;;;;;14.84;100.00;100342.56;5002187;28;20042;-68
2023/07/25 06:14:04;;;;;;;7.55;3.05;;;;;;;14.96;100.00;100335.81;5009139;28;20046;-67
2023/07/25 06:16:29;;;;;;;6.75;3.17;;;;;;;15.11;100.00;100338.25;5002559;28;20044;-67
2023/07/25 06:18:55;;;;;;;7.63;4.00;;;;;;;15.38;100.00;100330.47;5003884;28;20037;-67
2023/07/25 06:21:20;;;;;;;12.90;4.05;;;;;;;15.65;100.00;100335.72;5002855;28;20046;-68
2023/07/25 06:23:46;;;;;;;9.65;3.50;;;;;;;15.79;98.89;100332.16;5001666;28;20030;-68
2023/07/25 06:26:11;;;;;;;9.65;3.35;;;;;;;15.89;96.66;100336.97;5004392;28;20041;-67
2023/07/25 06:28:37;;;;;;;10.43;3.13;;;;;;;15.99;95.15;100337.34;5003144;28;20030;-67
2023/07/25 06:31:03;;;;;;;6.50;3.65;;;;;;;16.21;93.74;100339.75;5002744;28;20057;-68
2023/07/25 06:33:28;;;;;;;9.88;3.35;;;;;;;16.25;92.97;100338.34;5004124;28;20034;-68
2023/07/25 06:35:54;;;;;;;19.55;9.32;;;;;;;16.47;91.68;100338.91;4999614;28;20046;-68
2023/07/25 06:38:19;;;;;;;16.98;7.03;;;;;;;16.72;90.59;100349.47;5000966;28;20049;-68
2023/07/25 06:40:45;;;;;;;12.55;4.03;;;;;;;17.06;89.69;100345.72;5014335;28;20542;-68
2023/07/25 06:43:10;;;;;;;8.48;3.00;;;;;;;17.28;87.26;100340.97;5001201;28;20033;-68
2023/07/25 06:45:37;;;;;;;9.70;2.75;;;;;;;17.47;85.48;100347.09;5000918;28;20033;-69
2023/07/25 06:48:03;;;;;;;11.63;2.55;;;;;;;17.57;82.01;100341.38;5020817;28;20018;-68
2023/07/25 06:50:29;;;;;;;12.80;2.70;;;;;;;17.43;80.15;100345.13;5009806;28;20521;-68
2023/07/25 06:52:55;;;;;;;16.42;2.70;;;;;;;17.42;82.23;100348.75;5003729;28;20053;-68
2023/07/25 06:55:20;;;;;;;9.32;2.30;;;;;;;17.52;79.40;100342.03;5002716;28;20034;-68
2023/07/25 06:57:46;;;;;;;12.63;2.15;;;;;;;17.40;79.60;100345.53;5006794;28;20496;-68
2023/07/25 07:00:12;;;;;;;9.05;2.58;;;;;;;17.35;78.59;100347.97;5005691;28;20044;-68
2023/07/25 07:02:38;;;;;;;6.93;2.33;;;;;;;17.26;80.66;100344.81;5007012;28;20046;-68
2023/07/25 07:05:03;;;;;;;8.45;1.90;;;;;;;17.21;82.33;100339.41;5007942;28;20046;-68
2023/07/25 07:07:29;;;;;;;9.05;2.58;;;;;;;17.17;81.37;100344.25;5006500;28;20129;-68
2023/07/25 07:09:54;;;;;;;4.50;2.35;;;;;;;17.08;81.16;100340.28;5008451;28;20030;-68
2023/07/25 07:12:20;;;;;;;6.18;2.67;;;;;;;17.10;80.30;100352.16;5004870;28;20815;-68
2023/07/25 07:14:45;;;;;;;9.48;2.05;;;;;;;17.02;80.89;100346.38;5007609;28;20049;-68
2023/07/25 07:17:11;;;;;;;11.95;1.95;;;;;;;17.12;81.21;100349.31;5004597;28;20092;-68
2023/07/25 07:19:36;;;;;;;7.25;1.65;;;;;;;17.13;82.07;100346.50;5008188;28;20038;-68
2023/07/25 07:22:02;;;;;;;8.65;1.83;;;;;;;17.13;80.65;100353.56;5008049;28;20053;-68
2023/07/25 07:24:28;;;;;;;7.93;1.70;;;;;;;17.14;81.41;100355.19;5006112;28;20042;-68
2023/07/25 07:26:53;;;;;;;9.07;1.65;;;;;;;17.17;80.63;100351.31;5007720;28;20697;-68
2023/07/25 07:29:19;;;;;;;7.38;1.48;;;;;;;17.23;76.32;100350.47;4989731;28;20549;-68
2023/07/25 07:31:44;;;;;;;8.02;1.27;;;;;;;16.98;75.56;100351.22;5004517;28;20049;-68
2023/07/25 07:34:14;;;;;;;11.57;1.52;;;;;;;17.06;77.12;100355.41;5007351;28;20080;-68
2023/07/25 07:36:40;;;;;;;11.65;2.42;;;;;;;16.88;76.66;100363.97;5022400;28;20690;-68
2023/07/25 07:39:06;;;;;;;12.55;1.70;;;;;;;16.73;76.56;100364.97;5009756;28;20109;-68
2023/07/25 07:41:31;;;;;;;6.47;1.58;;;;;;;16.93;76.77;100356.25;5005479;28;20464;-68
2023/07/25 07:43:57;;;;;;;7.40;1.42;;;;;;;17.09;76.79;100355.00;5008051;28;20037;-68
2023/07/25 07:46:22;;;;;;;6.20;1.38;;;;;;;17.09;74.28;100362.84;5019508;28;20516;-68
2023/07/25 07:48:48;;;;;;;7.57;1.30;;;;;;;17.12;73.47;100365.03;5009460;28;20048;-68
2023/07/25 07:51:13;;;;;;;4.85;1.23;;;;;;;17.19;73.69;100360.56;5005209;28;20054;-69
2023/07/25 07:53:39;;;;;;;7.75;1.40;;;;;;;17.31;74.52;100363.34;5009447;28;20029;-68
2023/07/25 07:56:05;;;;;;;3.40;1.35;;;;;;;17.50;74.08;100369.47;5020997;28;22754;-68
2023/07/25 07:58:30;;;;;;;6.88;1.48;;;;;;;17.48;72.34;100374.13;5010321;28;20163;-68
2023/07/25 08:00:56;;;;;;;6.88;1.20;;;;;;;17.49;71.79;100379.13;5003623;28;20152;-68
2023/07/25 08:03:21;;;;;;;5.82;1.00;;;;;;;17.39;72.12;100372.78;5005808;28;20053;-68
2023/07/25 08:05:47;;;;;;;7.20;2.17;;;;;;;17.46;73.70;100368.25;5001827;28;20148;-68
2023/07/25 08:08:14;;;;;;;7.32;1.20;;;;;;;17.47;72.64;100373.31;4989939;28;20037;-68
2023/07/25 08:10:40;;;;;;;4.95;1.15;;;;;;;17.49;70.58;100375.72;5003735;28;20704;-69
2023/07/25 08:13:05;;;;;;;4.43;1.05;;;;;;;17.48;70.87;100372.31;5006849;28;20048;-68
2023/07/25 08:15:31;;;;;;;4.25;1.30;;;;;;;17.34;70.02;100375.22;5003676;28;20477;-69
2023/07/25 08:17:56;;;;;;;7.03;1.17;;;;;;;17.32;69.03;100365.72;5001946;28;20042;-68
2023/07/25 08:20:22;;;;;;;4.53;1.20;;;;;;;17.29;68.33;100374.03;4986657;28;20045;-69
2023/07/25 08:22:47;;;;;;;8.75;1.45;;;;;;;17.35;67.93;100372.38;5008666;28;20523;-68
2023/07/25 08:25:13;;;;;;;5.80;1.00;;;;;;;17.22;66.25;100372.47;5008525;28;20026;-69
2023/07/25 08:27:38;;;;;;;4.05;1.17;;;;;;;17.34;68.52;100378.63;5008126;28;20550;-68
2023/07/25 08:30:04;;;;;;;5.63;1.50;;;;;;;17.27;69.41;100377.84;5007570;28;20076;-69
2023/07/25 08:32:30;;;;;;;5.28;1.40;;;;;;;17.37;67.72;100375.59;5002926;28;20088;-68
2023/07/25 08:34:55;;;;;;;5.60;1.10;;;;;;;17.60;69.06;100379.47;5008347;28;20034;-68
2023/07/25 08:37:22;;;;;;;6.32;1.55;;;;;;;17.90;69.88;100379.69;5000340;28;20045;-68
2023/07/25 08:39:48;;;;;;;4.93;1.30;;;;;;;18.07;70.54;100382.56;5008180;28;20041;-68
2023/07/25 08:42:16;;;;;;;3.95;1.40;;;;;;;18.18;71.68;100384.50;5005527;28;20029;-68
2023/07/25 08:44:42;;;;;;;6.53;1.40;;;;;;;18.28;72.51;100384.00;5004482;28;20035;-68
2023/07/25 08:47:18;;;;;;;5.93;1.40;;;;;;;18.40;72.51;100386.69;5004727;28;20388;-68
2023/07/25 08:49:47;;;;;;;5.28;1.13;;;;;;;18.53;70.53;100383.94;4994451;28;20030;-68
2023/07/25 08:52:16;;;;;;;6.45;1.10;;;;;;;18.53;70.81;100383.94;5001332;28;20553;-68
2023/07/25 08:54:43;;;;;;;11.27;1.98;;;;;;;18.56;69.17;100387.97;5001445;28;20111;-68
2023/07/25 08:57:10;;;;;;;4.05;0.98;;;;;;;18.56;69.23;100387.97;5006948;28;20657;-68
2023/07/25 08:59:36;;;;;;;7.13;1.00;;;;;;;18.60;68.48;100389.13;5005617;28;20030;-68
2023/07/25 09:02:02;;;;;;;5.25;1.23;;;;;;;18.52;66.90;100386.78;4997508;28;20478;-68
2023/07/25 09:04:27;;;;;;;10.38;1.02;;;;;;;18.36;66.90;100394.19;5018490;28;20029;-68
2023/07/25 09:06:53;;;;;;;7.40;1.30;;;;;;;18.18;66.47;100389.75;5004475;28;20427;-68
2023/07/25 09:09:19;;;;;;;5.15;1.10;;;;;;;18.50;68.29;100394.88;5003494;28;20412;-68
2023/07/25 09:11:45;;;;;;;7.43;1.45;;;;;;;19.09;65.21;100394.44;5000835;28;20094;-68
2023/07/25 09:14:11;;;;;;;4.82;1.20;;;;;;;19.36;63.84;100387.78;5003875;28;20503;-68
2023/07/25 09:16:37;;;;;;;8.82;1.30;;;;;;;19.59;62.51;100384.44;5005144;28;20042;-68
2023/07/25 09:19:03;;;;;;;3.95;1.10;;;;;;;19.72;62.95;100390.50;5003913;28;20072;-67
2023/07/25 09:21:28;;;;;;;7.25;1.60;;;;;;;19.92;64.01;100398.91;5019805;28;20050;-73
2023/07/25 09:23:55;;;;;;;6.95;1.90;;;;;;;20.09;62.39;100406.13;5019942;28;20049;-69
2023/07/25 09:26:23;;;;;;;6.75;1.30;;;;;;;19.51;61.09;100408.41;5017113;28;20050;-77
2023/07/25 09:28:54;;;;;;;5.72;1.23;;;;;;;19.18;62.14;100407.03;4991501;28;20029;-69
2023/07/25 09:31:21;;;;;;;5.25;1.08;;;;;;;19.52;63.46;100412.66;4999634;28;20492;-69
2023/07/25 09:33:51;;;;;;;9.05;1.00;;;;;;;19.65;62.58;100406.41;5000839;28;20407;-69
2023/07/25 09:36:21;;;;;;;11.57;1.65;;;;;;;19.89;60.64;100403.81;4999738;28;20041;-69
2023/07/25 09:38:54;;;;;;;6.45;1.00;;;;;;;19.87;58.60;100401.41;5015687;28;20584;-68
2023/07/25 09:41:21;;;;;;;6.63;1.38;;;;;;;19.92;58.54;100404.16;5002710;28;20069;-68
2023/07/25 09:43:47;;;;;;;10.55;1.45;;;;;;;19.98;58.60;100398.00;5003196;28;20029;-68
2023/07/25 09:46:12;;;;;;;7.95;1.10;;;;;;;20.07;57.43;100395.03;5000912;28;20076;-68
2023/07/25 09:48:47;;;;;;;4.95;1.45;;;;;;;20.51;57.80;100390.19;5000579;28;20029;-68
2023/07/25 09:51:14;;;;;;;5.57;1.40;;;;;;;20.58;58.69;100391.66;5015739;28;20172;-68
2023/07/25 09:53:44;;;;;;;6.75;1.50;;;;;;;20.49;57.85;100394.91;5021053;28;20045;-68
2023/07/25 09:56:10;;;;;;;4.90;1.10;;;;;;;20.61;58.26;100395.72;5015656;28;20112;-68
2023/07/25 09:58:36;;;;;;;4.30;1.10;;;;;;;20.51;55.63;100392.81;5003904;28;20038;-68
2023/07/25 10:01:03;;;;;;;6.35;1.15;;;;;;;20.17;55.83;100397.88;5001517;28;20049;-68
2023/07/25 10:03:29;;;;;;;8.75;1.98;;;;;;;19.88;55.85;100403.03;5014499;28;20041;-68
2023/07/25 10:05:55;;;;;;;9.75;1.80;;;;;;;19.76;55.85;100392.50;5003181;28;20395;-68
2023/07/25 10:08:21;;;;;;;4.22;1.42;;;;;;;20.17;57.42;100395.25;5016412;28;20030;-68
2023/07/25 10:10:48;;;;;;;4.25;1.08;;;;;;;20.19;57.80;100393.19;5003699;28;20042;-68
2023/07/25 10:13:14;;;;;;;7.88;1.50;;;;;;;20.19;58.70;100390.56;5016886;28;20032;-68
2023/07/25 10:15:40;;;;;;;6.53;1.25;;;;;;;20.21;58.36;100394.59;5018932;28;20518;-69
2023/07/25 10:18:19;;;;;;;7.43;1.60;;;;;;;20.46;59.72;100398.00;4997877;28;20041;-68
2023/07/25 10:20:44;;;;;;;8.65;1.33;;;;;;;20.25;57.79;100402.81;4998197;28;20029;-68
2023/07/25 10:23:11;;;;;;;4.03;1.33;;;;;;;19.97;55.78;100393.78;4999357;28;20392;-68
2023/07/25 10:28:04;;;;;;;7.45;1.15;;;;;;;19.84;58.68;100402.69;4970594;28;20065;-69
2023/07/25 10:30:32;;;;;;;6.80;1.13;;;;;;;19.68;55.80;100391.97;4984240;28;20029;-69
2023/07/25 10:33:02;;;;;;;3.65;1.00;;;;;;;19.65;56.05;100396.66;5003960;28;20037;-69
2023/07/25 10:35:49;;;;;;;3.38;1.10;;;;;;;19.53;57.00;100402.94;5004610;28;20040;-69
2023/07/25 10:38:23;;;;;;;4.88;1.15;;;;;;;19.54;59.10;100401.91;5024994;28;20095;-69
2023/07/25 10:40:57;;;;;;;5.60;1.20;;;;;;;19.91;60.85;100407.03;5020036;28;20048;-69
2023/07/25 10:43:46;;;;;;;6.65;1.50;;;;;;;19.98;62.21;100413.00;5004781;28;20029;-69
2023/07/25 10:46:14;;;;;;;8.32;1.42;;;;;;;19.82;60.05;100410.00;5014182;28;20045;-69
2023/07/25 10:48:45;;;;;;;9.93;1.50;;;;;;;19.65;61.38;100406.41;4990585;28;20041;-69
2023/07/25 10:51:13;;;;;;;6.05;1.17;;;;;;;19.51;61.65;100405.78;5002642;28;20049;-70
2023/07/25 10:53:39;;;;;;;5.25;1.30;;;;;;;19.38;61.02;100398.06;5023366;28;20049;-69
2023/07/25 10:56:04;;;;;;;6.03;1.48;;;;;;;19.26;63.71;100405.94;5021750;28;20133;-69
2023/07/25 10:58:35;;;;;;;5.90;2.00;;;;;;;19.24;64.07;100407.97;5023957;28;20124;-69
2023/07/25 11:01:01;;;;;;;5.38;1.63;;;;;;;19.02;63.49;100403.22;4990299;28;20037;-69
2023/07/25 11:03:31;;;;;;;3.58;1.27;;;;;;;18.83;64.45;100407.66;5023112;28;20475;-70
2023/07/25 11:06:05;;;;;;;5.57;1.25;;;;;;;18.59;65.38;100413.75;5021499;28;20037;-69
2023/07/25 11:08:41;;;;;;;8.50;1.63;;;;;;;18.39;67.01;100411.34;5023429;28;20052;-69
2023/07/25 11:11:09;;;;;;;6.05;1.58;;;;;;;18.34;70.04;100419.06;5020028;28;20044;-69
2023/07/25 11:13:36;;;;;;;7.38;1.73;;;;;;;18.27;70.93;100419.94;5019628;28;20071;-68
2023/07/25 11:16:04;;;;;;;6.43;1.45;;;;;;;17.87;69.42;100420.22;5023661;28;20120;-69
2023/07/25 11:18:33;;;;;;;5.03;1.10;;;;;;;17.83;70.18;100421.66;5003748;28;20048;-69